createdAt,value
2023-03-01T00:01:49.830Z,10.30
2023-03-01T00:04:18.349Z,10.60
2023-03-01T00:06:47.575Z,11.50
2023-03-01T00:09:16.002Z,9.50
2023-03-01T00:11:45.757Z,10.70
2023-03-01T00:14:14.342Z,10.10
2023-03-01T00:16:47.870Z,10.50
2023-03-01T00:19:20.326Z,10.60
2023-03-01T00:21:49.220Z,9.80
2023-03-01T00:24:17.898Z,10.40
2023-03-01T00:26:46.203Z,10.90
2023-03-01T00:29:15.325Z,10.30
2023-03-01T00:34:57.469Z,10.00
2023-03-01T00:37:26.342Z,10.70
2023-03-01T00:39:54.563Z,10.40
2023-03-01T00:42:26.874Z,10.40
2023-03-01T00:44:55.247Z,11.70
2023-03-01T00:47:23.381Z,12.00
2023-03-01T00:49:53.393Z,11.20
2023-03-01T00:52:21.563Z,10.50
2023-03-01T00:54:49.712Z,11.60
2023-03-01T00:57:17.901Z,10.40
2023-03-01T00:59:46.099Z,11.10
2023-03-01T01:02:14.263Z,10.70
2023-03-01T01:04:43.033Z,10.60
2023-03-01T01:07:11.681Z,10.60
2023-03-01T01:09:40.490Z,10.80
2023-03-01T01:12:08.769Z,11.20
2023-03-01T01:14:37.766Z,10.20
2023-03-01T01:17:05.961Z,10.00
2023-03-01T01:19:39.589Z,9.00
2023-03-01T01:22:08.066Z,10.60
2023-03-01T01:24:36.681Z,10.60
2023-03-01T01:27:05.615Z,9.60
2023-03-01T01:29:34.010Z,10.10
2023-03-01T01:32:03.342Z,9.40
2023-03-01T01:34:31.795Z,10.20
2023-03-01T01:37:03.930Z,9.60
2023-03-01T01:39:33.009Z,9.80
2023-03-01T01:42:02.399Z,10.10
2023-03-01T01:44:31.258Z,10.10
2023-03-01T01:47:07.439Z,10.30
2023-03-01T01:49:43.432Z,10.50
2023-03-01T01:52:22.026Z,11.10
2023-03-01T01:55:03.549Z,10.70
2023-03-01T01:57:43.297Z,11.30
2023-03-01T02:00:17.294Z,10.50
2023-03-01T02:02:47.106Z,10.40
2023-03-01T02:05:18.136Z,11.00
2023-03-01T02:07:47.061Z,11.40
2023-03-01T02:10:15.362Z,11.00
2023-03-01T02:12:44.762Z,10.70
2023-03-01T02:15:13.663Z,10.00
2023-03-01T02:17:47.143Z,11.10
2023-03-01T02:20:35.957Z,9.70
2023-03-01T02:23:04.568Z,9.90
2023-03-01T02:25:37.856Z,10.50
2023-03-01T02:28:12.320Z,10.10
2023-03-01T02:31:01.542Z,9.90
2023-03-01T02:33:34.007Z,10.10
2023-03-01T02:36:12.652Z,10.60
2023-03-01T02:38:44.017Z,9.90
2023-03-01T02:41:14.848Z,10.90
2023-03-01T02:43:43.341Z,10.40
2023-03-01T02:46:20.303Z,10.40
2023-03-01T02:48:55.652Z,10.40
2023-03-01T02:51:26.782Z,10.40
2023-03-01T02:54:13.150Z,10.20
2023-03-01T02:56:42.196Z,9.70
2023-03-01T02:59:10.770Z,9.60
2023-03-01T03:01:39.565Z,10.60
2023-03-01T03:04:19.308Z,10.20
2023-03-01T03:06:51.365Z,10.30
2023-03-01T03:09:20.073Z,10.90
2023-03-01T03:11:49.091Z,10.30
2023-03-01T03:14:18.364Z,9.60
2023-03-01T03:16:49.963Z,10.60
2023-03-01T03:19:19.096Z,10.90
2023-03-01T03:21:47.596Z,11.20
2023-03-01T03:24:15.957Z,10.40
2023-03-01T03:26:44.147Z,10.60
2023-03-01T03:29:12.773Z,11.10
2023-03-01T03:31:41.233Z,11.20
2023-03-01T03:34:18.923Z,11.50
2023-03-01T03:36:47.728Z,10.50
2023-03-01T03:39:15.909Z,12.20
2023-03-01T03:41:44.443Z,11.30
2023-03-01T03:44:12.731Z,10.50
2023-03-01T03:46:41.112Z,10.80
2023-03-01T03:49:09.463Z,10.90
2023-03-01T03:51:37.616Z,11.70
2023-03-01T03:54:05.766Z,11.50
2023-03-01T03:56:36.050Z,11.30
2023-03-01T03:59:04.238Z,10.50
2023-03-01T04:01:32.558Z,11.00
2023-03-01T04:04:05.208Z,11.10
2023-03-01T04:06:33.738Z,11.70
2023-03-01T04:09:03.461Z,11.70
2023-03-01T04:11:31.640Z,10.50
2023-03-01T04:14:05.475Z,11.00
2023-03-01T04:16:35.912Z,10.70
2023-03-01T04:19:04.463Z,11.40
2023-03-01T04:21:33.858Z,10.80
2023-03-01T04:24:04.693Z,10.90
2023-03-01T04:26:33.460Z,10.40
2023-03-01T04:29:02.435Z,11.60
2023-03-01T04:31:31.130Z,11.30
2023-03-01T04:34:01.134Z,11.20
2023-03-01T04:36:30.425Z,11.70
2023-03-01T04:38:59.177Z,12.00
2023-03-01T04:41:27.565Z,10.10
2023-03-01T04:43:55.719Z,11.20
2023-03-01T04:46:24.333Z,11.60
2023-03-01T04:48:56.008Z,11.60
2023-03-01T04:51:24.292Z,11.50
2023-03-01T04:53:52.516Z,12.20
2023-03-01T04:56:20.692Z,12.20
2023-03-01T04:58:48.993Z,10.50
2023-03-01T05:01:19.176Z,11.00
2023-03-01T05:03:49.149Z,11.20
2023-03-01T05:06:18.025Z,11.40
2023-03-01T05:08:46.474Z,12.10
2023-03-01T05:11:14.934Z,11.50
2023-03-01T05:13:44.983Z,11.20
2023-03-01T05:16:13.374Z,10.80
2023-03-01T05:18:42.549Z,10.50
2023-03-01T05:21:17.355Z,11.80
2023-03-01T05:23:45.939Z,10.70
2023-03-01T05:26:27.765Z,11.00
2023-03-01T05:29:00.271Z,11.20
2023-03-01T05:31:32.063Z,11.60
2023-03-01T05:34:00.426Z,11.80
2023-03-01T05:36:29.499Z,11.40
2023-03-01T05:38:58.346Z,12.30
2023-03-01T05:41:26.506Z,12.30
2023-03-01T05:43:55.544Z,11.30
2023-03-01T05:46:25.486Z,12.00
2023-03-01T05:48:53.804Z,11.00
2023-03-01T05:51:23.277Z,13.80
2023-03-01T05:53:51.429Z,12.40
2023-03-01T05:56:19.585Z,12.30
2023-03-01T05:58:50.397Z,11.50
2023-03-01T06:01:18.695Z,11.40
2023-03-01T06:03:48.123Z,12.00
2023-03-01T06:06:17.207Z,11.50
2023-03-01T06:08:50.056Z,12.00
2023-03-01T06:11:19.230Z,11.90
2023-03-01T06:13:48.763Z,11.70
2023-03-01T06:16:24.508Z,11.00
2023-03-01T06:18:52.968Z,12.30
2023-03-01T06:21:21.567Z,11.30
2023-03-01T06:23:50.371Z,11.80
2023-03-01T06:26:19.679Z,12.60
2023-03-01T06:28:47.956Z,11.60
2023-03-01T06:31:17.165Z,12.90
2023-03-01T06:33:46.046Z,12.80
2023-03-01T06:36:14.296Z,11.50
2023-03-01T06:38:42.697Z,12.30
2023-03-01T06:41:11.433Z,12.90
2023-03-01T06:43:40.753Z,11.40
2023-03-01T06:46:09.856Z,12.10
2023-03-01T06:48:38.037Z,13.10
2023-03-01T06:51:08.476Z,12.40
2023-03-01T06:53:37.111Z,11.80
2023-03-01T06:56:05.853Z,12.30
2023-03-01T06:58:36.498Z,12.70
2023-03-01T07:01:08.726Z,12.30
2023-03-01T07:03:37.148Z,10.90
2023-03-01T07:06:05.791Z,11.70
2023-03-01T07:08:34.161Z,11.70
2023-03-01T07:11:04.522Z,12.30
2023-03-01T07:13:35.868Z,11.50
2023-03-01T07:16:04.298Z,11.90
2023-03-01T07:18:33.104Z,12.80
2023-03-01T07:21:09.275Z,11.30
2023-03-01T07:23:40.552Z,11.50
2023-03-01T07:26:09.008Z,12.50
2023-03-01T07:28:40.095Z,12.00
2023-03-01T07:31:08.919Z,12.50
2023-03-01T07:33:38.429Z,13.40
2023-03-01T07:36:07.501Z,11.70
2023-03-01T07:38:37.117Z,11.90
2023-03-01T07:41:06.873Z,11.90
2023-03-01T07:43:38.461Z,12.20
2023-03-01T07:46:07.517Z,12.20
2023-03-01T07:48:36.975Z,11.80
2023-03-01T07:51:06.289Z,12.20
2023-03-01T07:53:36.594Z,11.20
2023-03-01T07:56:06.007Z,12.10
2023-03-01T07:58:39.004Z,11.10
2023-03-01T08:01:08.803Z,12.10
2023-03-01T08:03:37.968Z,11.30
2023-03-01T08:06:07.606Z,10.80
2023-03-01T08:08:36.823Z,11.90
2023-03-01T08:11:09.232Z,11.30
2023-03-01T08:13:58.516Z,12.40
2023-03-01T08:16:32.460Z,11.50
2023-03-01T08:19:08.258Z,11.60
2023-03-01T08:21:36.867Z,11.20
2023-03-01T08:24:07.012Z,11.60
2023-03-01T08:26:35.824Z,11.80
2023-03-01T08:29:04.618Z,10.50
2023-03-01T08:31:38.980Z,11.60
2023-03-01T08:34:14.451Z,11.60
2023-03-01T08:36:44.717Z,12.40
2023-03-01T08:39:14.792Z,12.00
2023-03-01T08:41:43.607Z,13.00
2023-03-01T08:44:13.399Z,12.70
2023-03-01T08:46:42.572Z,12.50
2023-03-01T08:49:17.315Z,11.60
2023-03-01T08:51:46.706Z,11.30
2023-03-01T08:54:19.459Z,11.10
2023-03-01T08:56:49.929Z,10.50
2023-03-01T08:59:19.311Z,10.60
2023-03-01T09:01:48.009Z,11.90
2023-03-01T09:04:17.224Z,12.50
2023-03-01T09:06:50.848Z,11.30
2023-03-01T09:09:19.556Z,11.10
2023-03-01T09:11:51.363Z,11.70
2023-03-01T09:14:20.964Z,10.70
2023-03-01T09:16:49.708Z,11.60
2023-03-01T09:19:18.500Z,11.80
2023-03-01T09:21:54.036Z,11.70
2023-03-01T09:24:24.284Z,10.70
2023-03-01T09:26:57.908Z,11.30
2023-03-01T09:29:27.093Z,12.60
2023-03-01T09:31:56.625Z,11.80
2023-03-01T09:34:26.104Z,11.10
2023-03-01T09:36:54.374Z,11.30
2023-03-01T09:39:22.963Z,11.80
2023-03-01T09:42:00.813Z,10.90
2023-03-01T09:44:39.612Z,12.00
2023-03-01T09:47:16.480Z,10.30
2023-03-01T09:49:49.828Z,9.80
2023-03-01T09:52:22.184Z,9.80
2023-03-01T09:54:51.252Z,10.90
2023-03-01T09:57:21.938Z,10.00
2023-03-01T10:00:29.416Z,10.00
2023-03-01T10:03:03.898Z,10.30
2023-03-01T10:05:42.086Z,10.20
2023-03-01T10:08:16.271Z,9.50
2023-03-01T10:10:45.559Z,10.20
2023-03-01T10:13:43.693Z,10.20
2023-03-01T10:16:39.124Z,9.10
2023-03-01T10:19:08.386Z,8.80
2023-03-01T10:21:40.103Z,9.30
2023-03-01T10:24:15.307Z,10.20
2023-03-01T10:26:57.748Z,10.90
2023-03-01T10:29:48.145Z,10.10
2023-03-01T10:32:17.578Z,10.20
2023-03-01T10:34:49.512Z,9.10
2023-03-01T10:37:22.455Z,9.20
2023-03-01T10:40:00.415Z,8.80
2023-03-01T10:42:32.215Z,8.40
2023-03-01T10:45:17.983Z,9.10
2023-03-01T10:47:46.897Z,8.10
2023-03-01T10:50:23.295Z,8.60
2023-03-01T10:53:03.450Z,9.00
2023-03-01T10:55:40.786Z,9.20
2023-03-01T10:58:15.679Z,8.00
2023-03-01T11:00:49.657Z,8.70
2023-03-01T11:03:24.067Z,8.70
2023-03-01T11:06:05.704Z,8.40
2023-03-01T11:08:47.869Z,8.30
2023-03-01T11:11:35.514Z,8.50
2023-03-01T11:14:23.671Z,8.50
2023-03-01T11:17:05.383Z,8.20
2023-03-01T11:19:35.388Z,7.40
2023-03-01T11:22:15.666Z,8.20
2023-03-01T11:24:48.153Z,7.60
2023-03-01T11:27:39.839Z,8.20
2023-03-01T11:30:25.726Z,7.90
2023-03-01T11:33:09.856Z,7.70
2023-03-01T11:36:04.966Z,9.40
2023-03-01T11:38:35.379Z,8.00
2023-03-01T11:41:12.504Z,7.90
2023-03-01T11:44:01.814Z,7.20
2023-03-01T11:46:33.523Z,8.30
2023-03-01T11:49:01.782Z,7.00
2023-03-01T11:51:44.853Z,7.40
2023-03-01T11:54:23.215Z,8.20
2023-03-01T11:57:00.302Z,8.50
2023-03-01T12:02:41.085Z,7.60
2023-03-01T12:05:54.589Z,8.90
2023-03-01T12:08:39.508Z,8.00
2023-03-01T12:11:24.342Z,7.70
2023-03-01T12:13:56.363Z,8.00
2023-03-01T12:16:52.069Z,8.00
2023-03-01T12:19:33.933Z,7.80
2023-03-01T12:22:24.322Z,7.50
2023-03-01T12:24:58.171Z,7.80
2023-03-01T12:27:35.501Z,8.00
2023-03-01T12:32:38.283Z,8.30
2023-03-01T12:35:33.451Z,8.30
2023-03-01T12:38:04.862Z,8.30
2023-03-01T12:41:02.641Z,9.00
2023-03-01T12:43:57.877Z,8.30
2023-03-01T13:28:43.959Z,8.70
2023-03-01T13:31:32.379Z,8.10
2023-03-01T13:34:01.918Z,7.80
2023-03-01T13:36:31.480Z,7.60
2023-03-01T13:39:01.355Z,7.50
2023-03-01T13:41:45.026Z,7.70
2023-03-01T13:44:19.514Z,7.80
2023-03-01T13:47:15.015Z,7.80
2023-03-01T13:49:46.864Z,7.70
2023-03-01T13:52:38.151Z,7.90
2023-03-01T13:55:28.005Z,7.50
2023-03-01T13:57:58.809Z,7.90
2023-03-01T14:00:38.402Z,8.30
2023-03-01T14:03:20.279Z,9.10
2023-03-01T14:06:14.023Z,9.60
2023-03-01T14:08:44.282Z,12.80
2023-03-01T14:11:43.284Z,12.30
2023-03-01T14:14:42.732Z,12.20
2023-03-01T14:17:11.234Z,11.90
2023-03-01T14:19:39.475Z,10.80
2023-03-01T14:22:23.333Z,10.10
2023-03-01T14:24:56.819Z,10.20
2023-03-01T14:27:31.197Z,10.90
2023-03-01T14:30:01.562Z,10.40
2023-03-01T14:32:31.765Z,10.00
2023-03-01T14:35:00.657Z,9.70
2023-03-01T14:37:31.666Z,9.80
2023-03-01T14:40:02.064Z,10.80
2023-03-01T14:42:36.518Z,10.00
2023-03-01T14:45:05.321Z,9.10
2023-03-01T14:47:36.746Z,11.10
2023-03-01T14:50:10.577Z,10.70
2023-03-01T14:52:40.214Z,11.50
2023-03-01T14:55:17.206Z,11.30
2023-03-01T14:57:47.546Z,11.80
2023-03-01T15:00:19.266Z,11.80
2023-03-01T15:02:55.649Z,10.50
2023-03-01T15:05:33.669Z,10.50
2023-03-01T15:08:02.685Z,10.70
2023-03-01T15:10:36.068Z,11.00
2023-03-01T15:13:24.943Z,10.40
2023-03-01T15:15:55.210Z,9.90
2023-03-01T15:18:28.182Z,9.90
2023-03-01T15:20:56.843Z,9.40
2023-03-01T15:23:29.204Z,10.60
2023-03-01T15:26:02.623Z,10.00
2023-03-01T15:28:44.362Z,11.10
2023-03-01T15:31:36.378Z,11.90
2023-03-01T15:34:30.710Z,11.10
2023-03-01T15:37:06.669Z,13.80
2023-03-01T15:39:41.005Z,13.30
2023-03-01T15:42:11.331Z,13.40
2023-03-01T15:44:44.340Z,13.10
2023-03-01T15:47:32.170Z,13.80
2023-03-01T15:50:01.758Z,12.80
2023-03-01T15:52:40.558Z,11.00
2023-03-01T15:55:31.460Z,11.60
2023-03-01T15:58:35.458Z,10.30
2023-03-01T16:01:03.796Z,10.80
2023-03-01T16:03:32.738Z,18.80
2023-03-01T16:06:02.142Z,13.10
2023-03-01T16:08:30.777Z,14.60
2023-03-01T16:11:00.249Z,15.00
2023-03-01T16:13:29.550Z,16.10
2023-03-01T16:16:03.967Z,17.90
2023-03-01T16:18:32.523Z,12.00
2023-03-01T16:21:01.461Z,7.80
2023-03-01T16:23:32.066Z,8.90
2023-03-01T16:26:01.467Z,8.10
2023-03-01T16:28:30.670Z,9.80
2023-03-01T16:31:00.174Z,10.00
2023-03-01T16:33:33.675Z,10.70
2023-03-01T16:36:11.491Z,9.00
2023-03-01T16:38:39.877Z,6.10
2023-03-01T16:41:13.004Z,6.00
2023-03-01T16:43:42.062Z,5.60
2023-03-01T16:46:30.760Z,6.00
2023-03-01T16:48:59.161Z,6.00
2023-03-01T16:51:27.490Z,7.40
2023-03-01T16:53:55.937Z,7.90
2023-03-01T16:56:24.476Z,8.30
2023-03-01T16:58:52.794Z,8.30
2023-03-01T17:01:26.945Z,8.20
2023-03-01T17:03:57.241Z,8.30
2023-03-01T17:06:27.766Z,8.70
2023-03-01T17:08:58.146Z,7.90
2023-03-01T17:11:26.340Z,8.40
2023-03-01T17:13:56.391Z,9.00
2023-03-01T17:16:25.540Z,9.50
2023-03-01T17:18:53.787Z,9.50
2023-03-01T17:21:22.261Z,10.80
2023-03-01T17:23:52.174Z,18.40
2023-03-01T17:26:20.457Z,11.00
2023-03-01T17:28:52.823Z,9.70
2023-03-01T17:31:21.452Z,7.50
2023-03-01T17:33:50.266Z,8.00
2023-03-01T17:36:19.218Z,7.70
2023-03-01T17:38:50.903Z,8.40
2023-03-01T17:41:19.462Z,8.00
2023-03-01T17:43:49.503Z,8.80
2023-03-01T17:46:19.402Z,8.60
2023-03-01T17:48:49.986Z,14.40
2023-03-01T17:51:38.557Z,12.30
2023-03-01T17:54:07.193Z,17.10
2023-03-01T17:56:38.744Z,12.40
2023-03-01T17:59:07.584Z,10.00
2023-03-01T18:01:37.602Z,10.10
2023-03-01T18:04:06.311Z,8.70
2023-03-01T18:06:35.958Z,7.50
2023-03-01T18:09:05.037Z,7.60
2023-03-01T18:11:35.972Z,5.60
2023-03-01T18:14:05.411Z,5.90
2023-03-01T18:16:34.516Z,5.60
2023-03-01T18:19:04.984Z,4.00
2023-03-01T18:21:34.368Z,4.50
2023-03-01T18:24:02.639Z,3.50
2023-03-01T18:26:31.816Z,3.10
2023-03-01T18:29:01.362Z,3.10
2023-03-01T18:31:33.628Z,4.00
2023-03-01T18:34:02.619Z,35.70
2023-03-01T18:36:35.051Z,55.50
2023-03-01T18:39:06.763Z,16.80
2023-03-01T18:41:35.663Z,12.20
2023-03-01T18:44:05.191Z,9.00
2023-03-01T18:46:36.068Z,21.00
2023-03-01T18:49:06.478Z,15.20
2023-03-01T18:51:36.718Z,9.20
2023-03-01T18:54:05.045Z,7.20
2023-03-01T18:56:34.689Z,13.50
2023-03-01T18:59:04.132Z,11.90
2023-03-01T19:01:36.418Z,13.90
2023-03-01T19:04:05.744Z,14.20
2023-03-01T19:06:35.601Z,14.40
2023-03-01T19:09:05.417Z,13.40
2023-03-01T19:11:35.692Z,12.40
2023-03-01T19:14:04.462Z,11.20
2023-03-01T19:16:35.976Z,10.40
2023-03-01T19:19:05.617Z,11.30
2023-03-01T19:21:34.224Z,10.30
2023-03-01T19:24:02.867Z,8.80
2023-03-01T19:26:32.219Z,8.10
2023-03-01T19:29:07.872Z,8.20
2023-03-01T19:31:36.353Z,7.30
2023-03-01T19:34:11.441Z,8.30
2023-03-01T19:36:44.627Z,7.20
2023-03-01T19:39:13.730Z,8.20
2023-03-01T19:41:43.274Z,10.20
2023-03-01T19:44:14.040Z,10.70
2023-03-01T19:46:42.319Z,13.70
2023-03-01T19:49:11.737Z,14.70
2023-03-01T19:51:40.232Z,11.80
2023-03-01T19:54:10.156Z,9.50
2023-03-01T19:56:40.943Z,10.40
2023-03-01T19:59:09.475Z,9.60
2023-03-01T20:01:38.602Z,9.80
2023-03-01T20:04:10.484Z,9.30
2023-03-01T20:06:41.746Z,10.60
2023-03-01T20:09:21.086Z,8.60
2023-03-01T20:11:51.736Z,8.10
2023-03-01T20:14:27.181Z,7.60
2023-03-01T20:16:57.350Z,8.80
2023-03-01T20:19:26.510Z,8.40
2023-03-01T20:22:03.780Z,7.30
2023-03-01T20:24:33.816Z,6.90
2023-03-01T20:27:02.382Z,7.00
2023-03-01T20:29:31.285Z,6.50
2023-03-01T20:31:59.959Z,6.60
2023-03-01T20:34:28.341Z,5.90
2023-03-01T20:36:57.115Z,4.90
2023-03-01T20:39:26.561Z,5.10
2023-03-01T20:41:57.639Z,5.80
2023-03-01T20:44:28.459Z,5.40
2023-03-01T20:46:56.728Z,4.90
2023-03-01T20:49:25.355Z,4.60
2023-03-01T20:51:53.560Z,6.40
2023-03-01T20:54:28.180Z,6.80
2023-03-01T20:56:56.684Z,6.30
2023-03-01T20:59:24.904Z,6.50
2023-03-01T21:01:53.430Z,6.30
2023-03-01T21:04:22.075Z,6.80
2023-03-01T21:06:50.851Z,6.50
2023-03-01T21:09:19.260Z,6.40
2023-03-01T21:11:50.285Z,7.00
2023-03-01T21:14:18.451Z,7.20
2023-03-01T21:16:46.974Z,7.30
2023-03-01T21:19:15.690Z,6.50
2023-03-01T21:21:43.997Z,7.30
2023-03-01T21:24:15.336Z,6.90
2023-03-01T21:26:45.005Z,7.70
2023-03-01T21:29:13.196Z,7.50
2023-03-01T21:31:42.696Z,6.80
2023-03-01T21:34:14.130Z,7.50
2023-03-01T21:36:42.484Z,7.90
2023-03-01T21:39:11.886Z,6.50
2023-03-01T21:41:40.284Z,6.90
2023-03-01T21:44:08.679Z,7.00
2023-03-01T21:46:38.383Z,6.00
2023-03-01T21:49:07.325Z,6.20
2023-03-01T21:51:36.722Z,6.60
2023-03-01T21:54:07.011Z,6.30
2023-03-01T21:56:39.322Z,5.80
2023-03-01T21:59:09.363Z,6.00
2023-03-01T22:01:39.688Z,5.70
2023-03-01T22:04:07.852Z,6.60
2023-03-01T22:06:41.027Z,6.00
2023-03-01T22:09:11.625Z,6.20
2023-03-01T22:11:47.728Z,6.40
2023-03-01T22:14:18.075Z,6.50
2023-03-01T22:16:47.981Z,6.30
2023-03-01T22:19:16.716Z,6.70
2023-03-01T22:21:49.871Z,6.60
2023-03-01T22:24:23.025Z,5.80
2023-03-01T22:26:51.570Z,6.00
2023-03-01T22:29:26.273Z,5.60
2023-03-01T22:31:55.382Z,5.30
2023-03-01T22:34:23.844Z,5.70
2023-03-01T22:36:53.229Z,5.20
2023-03-01T22:39:21.604Z,5.60
2023-03-01T22:41:51.206Z,5.20
2023-03-01T22:44:20.717Z,5.40
2023-03-01T22:46:52.151Z,6.10
2023-03-01T22:49:20.704Z,6.00
2023-03-01T22:51:49.153Z,5.80
2023-03-01T22:54:18.614Z,5.50
2023-03-01T22:56:49.360Z,6.40
2023-03-01T22:59:23.270Z,5.80
2023-03-01T23:01:52.350Z,5.80
2023-03-01T23:04:21.277Z,6.60
2023-03-01T23:06:56.373Z,6.00
2023-03-01T23:12:01.323Z,5.40
2023-03-01T23:14:31.191Z,5.70
2023-03-01T23:17:01.817Z,6.30
2023-03-01T23:19:30.277Z,5.90
2023-03-01T23:21:58.358Z,6.00
2023-03-01T23:24:31.984Z,6.20
2023-03-01T23:27:02.193Z,5.70
2023-03-01T23:29:31.232Z,5.80
2023-03-01T23:31:59.461Z,6.00
2023-03-01T23:34:28.215Z,6.60
2023-03-01T23:36:58.180Z,6.20
2023-03-01T23:39:26.618Z,5.70
2023-03-01T23:41:54.974Z,5.90
2023-03-01T23:44:27.872Z,6.80
2023-03-01T23:46:56.971Z,6.30
2023-03-01T23:49:25.300Z,5.80
2023-03-01T23:51:53.999Z,6.00
2023-03-01T23:54:23.464Z,5.70
2023-03-01T23:56:52.093Z,6.10
2023-03-01T23:59:22.197Z,6.00
